sensor_id;sensor_type;location;lat;lon;timestamp;temperature;humidity
1568;DHT22;777;47.156;8.326;2023-04-25T00:02:01;9.10;99.90
1568;DHT22;777;47.156;8.326;2023-04-25T00:04:29;9.00;99.90
1568;DHT22;777;47.156;8.326;2023-04-25T00:06:59;9.00;99.90
1568;DHT22;777;47.156;8.326;2023-04-25T00:09:28;9.00;99.90
1568;DHT22;777;47.156;8.326;2023-04-25T00:11:56;8.90;99.90
1568;DHT22;777;47.156;8.326;2023-04-25T00:14:23;8.90;99.90
1568;DHT22;777;47.156;8.326;2023-04-25T00:16:51;8.90;99.90
1568;DHT22;777;47.156;8.326;2023-04-25T00:19:19;9.00;99.90
1568;DHT22;777;47.156;8.326;2023-04-25T00:21:46;8.90;99.90
1568;DHT22;777;47.156;8.326;2023-04-25T00:24:13;8.80;99.90
1568;DHT22;777;47.156;8.326;2023-04-25T00:26:40;8.80;99.90
1568;DHT22;777;47.156;8.326;2023-04-25T00:29:09;8.80;99.90
1568;DHT22;777;47.156;8.326;2023-04-25T00:31:37;8.80;99.90
1568;DHT22;777;47.156;8.326;2023-04-25T00:34:04;8.70;99.90
1568;DHT22;777;47.156;8.326;2023-04-25T00:36:31;8.70;99.90
1568;DHT22;777;47.156;8.326;2023-04-25T00:38:58;8.70;99.90
1568;DHT22;777;47.156;8.326;2023-04-25T00:41:26;8.60;99.90
1568;DHT22;777;47.156;8.326;2023-04-25T00:43:54;8.60;99.90
1568;DHT22;777;47.156;8.326;2023-04-25T00:46:22;8.60;99.90
1568;DHT22;777;47.156;8.326;2023-04-25T00:48:50;8.60;99.90
1568;DHT22;777;47.156;8.326;2023-04-25T00:51:20;8.60;99.90
1568;DHT22;777;47.156;8.326;2023-04-25T00:53:48;8.60;99.90
1568;DHT22;777;47.156;8.326;2023-04-25T00:56:16;8.60;99.90
1568;DHT22;777;47.156;8.326;2023-04-25T00:58:43;8.60;99.90
1568;DHT22;777;47.156;8.326;2023-04-25T01:01:11;8.60;99.90
1568;DHT22;777;47.156;8.326;2023-04-25T01:03:40;8.60;99.90
1568;DHT22;777;47.156;8.326;2023-04-25T01:06:09;8.60;99.90
1568;DHT22;777;47.156;8.326;2023-04-25T01:08:37;8.60;99.90
1568;DHT22;777;47.156;8.326;2023-04-25T01:11:05;8.60;99.90
1568;DHT22;777;47.156;8.326;2023-04-25T01:13:32;8.60;99.90
1568;DHT22;777;47.156;8.326;2023-04-25T01:16:00;8.60;99.90
1568;DHT22;777;47.156;8.326;2023-04-25T01:18:27;8.50;99.90
1568;DHT22;777;47.156;8.326;2023-04-25T01:20:56;8.50;99.90
1568;DHT22;777;47.156;8.326;2023-04-25T01:23:26;8.50;99.90
1568;DHT22;777;47.156;8.326;2023-04-25T01:25:53;8.50;99.90
1568;DHT22;777;47.156;8.326;2023-04-25T01:28:21;8.50;99.90
1568;DHT22;777;47.156;8.326;2023-04-25T01:30:48;8.50;99.90
1568;DHT22;777;47.156;8.326;2023-04-25T01:33:15;8.50;99.90
1568;DHT22;777;47.156;8.326;2023-04-25T01:35:43;8.40;99.90
1568;DHT22;777;47.156;8.326;2023-04-25T01:38:11;8.50;99.90
1568;DHT22;777;47.156;8.326;2023-04-25T01:40:40;8.50;99.90
1568;DHT22;777;47.156;8.326;2023-04-25T01:43:07;8.40;99.90
1568;DHT22;777;47.156;8.326;2023-04-25T01:45:37;8.30;99.90
1568;DHT22;777;47.156;8.326;2023-04-25T01:48:06;8.20;99.90
1568;DHT22;777;47.156;8.326;2023-04-25T01:50:33;7.90;99.90
1568;DHT22;777;47.156;8.326;2023-04-25T01:53:00;7.60;99.90
1568;DHT22;777;47.156;8.326;2023-04-25T01:55:29;7.50;99.90
1568;DHT22;777;47.156;8.326;2023-04-25T01:58:03;7.50;99.90
1568;DHT22;777;47.156;8.326;2023-04-25T02:00:57;7.40;99.90
1568;DHT22;777;47.156;8.326;2023-04-25T02:03:31;7.30;99.90
1568;DHT22;777;47.156;8.326;2023-04-25T02:05:59;7.30;99.90
1568;DHT22;777;47.156;8.326;2023-04-25T02:08:26;7.20;99.90
1568;DHT22;777;47.156;8.326;2023-04-25T02:10:55;7.30;99.90
1568;DHT22;777;47.156;8.326;2023-04-25T02:13:24;7.20;99.90
1568;DHT22;777;47.156;8.326;2023-04-25T02:15:58;7.30;99.90
1568;DHT22;777;47.156;8.326;2023-04-25T02:18:25;7.30;99.90
1568;DHT22;777;47.156;8.326;2023-04-25T02:20:52;7.20;99.90
1568;DHT22;777;47.156;8.326;2023-04-25T02:23:20;7.20;99.90
1568;DHT22;777;47.156;8.326;2023-04-25T02:25:47;7.30;99.90
1568;DHT22;777;47.156;8.326;2023-04-25T02:28:15;7.40;99.90
1568;DHT22;777;47.156;8.326;2023-04-25T02:30:43;7.30;99.90
1568;DHT22;777;47.156;8.326;2023-04-25T02:33:10;7.40;99.90
1568;DHT22;777;47.156;8.326;2023-04-25T02:35:37;7.40;99.90
1568;DHT22;777;47.156;8.326;2023-04-25T02:38:04;7.40;99.90
1568;DHT22;777;47.156;8.326;2023-04-25T02:40:32;7.40;99.90
1568;DHT22;777;47.156;8.326;2023-04-25T02:42:59;7.30;99.90
1568;DHT22;777;47.156;8.326;2023-04-25T02:45:26;7.10;99.90
1568;DHT22;777;47.156;8.326;2023-04-25T02:47:56;7.10;99.90
1568;DHT22;777;47.156;8.326;2023-04-25T02:50:23;7.00;99.90
1568;DHT22;777;47.156;8.326;2023-04-25T02:52:50;7.10;99.90
1568;DHT22;777;47.156;8.326;2023-04-25T02:55:22;7.10;99.90
1568;DHT22;777;47.156;8.326;2023-04-25T02:57:49;7.10;99.90
1568;DHT22;777;47.156;8.326;2023-04-25T03:00:27;7.00;99.90
1568;DHT22;777;47.156;8.326;2023-04-25T03:02:56;7.10;99.90
1568;DHT22;777;47.156;8.326;2023-04-25T03:05:23;7.10;99.90
1568;DHT22;777;47.156;8.326;2023-04-25T03:07:51;7.20;99.90
1568;DHT22;777;47.156;8.326;2023-04-25T03:10:18;7.20;99.90
1568;DHT22;777;47.156;8.326;2023-04-25T03:12:45;7.30;99.90
1568;DHT22;777;47.156;8.326;2023-04-25T03:15:12;7.30;99.90
1568;DHT22;777;47.156;8.326;2023-04-25T03:17:39;7.40;99.90
1568;DHT22;777;47.156;8.326;2023-04-25T03:20:09;7.40;99.90
1568;DHT22;777;47.156;8.326;2023-04-25T03:22:36;7.30;99.90
1568;DHT22;777;47.156;8.326;2023-04-25T03:25:04;7.20;99.90
1568;DHT22;777;47.156;8.326;2023-04-25T03:27:32;7.10;99.90
1568;DHT22;777;47.156;8.326;2023-04-25T03:29:59;7.00;99.90
1568;DHT22;777;47.156;8.326;2023-04-25T03:32:27;7.10;99.90
1568;DHT22;777;47.156;8.326;2023-04-25T03:34:54;7.10;99.90
1568;DHT22;777;47.156;8.326;2023-04-25T03:37:24;7.00;99.90
1568;DHT22;777;47.156;8.326;2023-04-25T03:39:51;7.10;99.90
1568;DHT22;777;47.156;8.326;2023-04-25T03:42:18;7.20;99.90
1568;DHT22;777;47.156;8.326;2023-04-25T03:44:48;7.20;99.90
1568;DHT22;777;47.156;8.326;2023-04-25T03:47:15;7.20;99.90
1568;DHT22;777;47.156;8.326;2023-04-25T03:49:42;7.30;99.90
1568;DHT22;777;47.156;8.326;2023-04-25T03:52:10;7.30;99.90
1568;DHT22;777;47.156;8.326;2023-04-25T03:54:41;7.20;99.90
1568;DHT22;777;47.156;8.326;2023-04-25T03:57:14;7.30;99.90
1568;DHT22;777;47.156;8.326;2023-04-25T03:59:42;7.40;99.90
1568;DHT22;777;47.156;8.326;2023-04-25T04:02:11;7.30;99.90
1568;DHT22;777;47.156;8.326;2023-04-25T04:04:40;7.30;99.90
1568;DHT22;777;47.156;8.326;2023-04-25T04:07:07;7.30;99.90
1568;DHT22;777;47.156;8.326;2023-04-25T04:09:36;7.40;99.90
1568;DHT22;777;47.156;8.326;2023-04-25T04:12:11;7.40;99.90
1568;DHT22;777;47.156;8.326;2023-04-25T04:14:40;7.60;99.90
1568;DHT22;777;47.156;8.326;2023-04-25T04:17:07;7.70;99.90
1568;DHT22;777;47.156;8.326;2023-04-25T04:19:34;7.80;99.90
1568;DHT22;777;47.156;8.326;2023-04-25T04:22:15;7.70;99.90
1568;DHT22;777;47.156;8.326;2023-04-25T04:24:42;7.70;99.90
1568;DHT22;777;47.156;8.326;2023-04-25T04:27:15;7.70;99.90
1568;DHT22;777;47.156;8.326;2023-04-25T04:29:52;7.70;99.90
1568;DHT22;777;47.156;8.326;2023-04-25T04:32:28;7.70;99.90
1568;DHT22;777;47.156;8.326;2023-04-25T04:34:56;7.60;99.90
1568;DHT22;777;47.156;8.326;2023-04-25T04:37:24;7.60;99.90
1568;DHT22;777;47.156;8.326;2023-04-25T04:39:51;7.60;99.90
1568;DHT22;777;47.156;8.326;2023-04-25T04:42:46;7.60;99.90
1568;DHT22;777;47.156;8.326;2023-04-25T04:45:33;7.50;99.90
1568;DHT22;777;47.156;8.326;2023-04-25T04:48:04;7.40;99.90
1568;DHT22;777;47.156;8.326;2023-04-25T04:50:34;7.40;99.90
1568;DHT22;777;47.156;8.326;2023-04-25T04:53:21;7.40;99.90
1568;DHT22;777;47.156;8.326;2023-04-25T04:56:01;7.30;99.90
1568;DHT22;777;47.156;8.326;2023-04-25T04:58:56;7.30;99.90
1568;DHT22;777;47.156;8.326;2023-04-25T05:01:43;7.30;99.90
1568;DHT22;777;47.156;8.326;2023-04-25T05:04:28;7.40;99.90
1568;DHT22;777;47.156;8.326;2023-04-25T05:07:17;7.50;99.90
1568;DHT22;777;47.156;8.326;2023-04-25T05:09:58;7.50;99.90
1568;DHT22;777;47.156;8.326;2023-04-25T05:13:00;7.50;99.90
1568;DHT22;777;47.156;8.326;2023-04-25T05:15:48;7.50;99.90
1568;DHT22;777;47.156;8.326;2023-04-25T05:18:29;7.60;99.90
1568;DHT22;777;47.156;8.326;2023-04-25T05:21:23;7.70;99.90
1568;DHT22;777;47.156;8.326;2023-04-25T05:24:19;7.80;99.90
1568;DHT22;777;47.156;8.326;2023-04-25T05:27:06;7.80;99.90
1568;DHT22;777;47.156;8.326;2023-04-25T05:30:00;7.90;99.90
1568;DHT22;777;47.156;8.326;2023-04-25T05:32:58;8.20;99.90
1568;DHT22;777;47.156;8.326;2023-04-25T05:35:26;8.20;99.90
1568;DHT22;777;47.156;8.326;2023-04-25T05:37:53;8.60;99.90
1568;DHT22;777;47.156;8.326;2023-04-25T05:40:31;9.50;99.90
1568;DHT22;777;47.156;8.326;2023-04-25T05:43:10;9.60;99.90
1568;DHT22;777;47.156;8.326;2023-04-25T05:45:57;9.30;99.90
1568;DHT22;777;47.156;8.326;2023-04-25T05:48:28;8.90;99.90
1568;DHT22;777;47.156;8.326;2023-04-25T05:51:18;8.70;99.90
1568;DHT22;777;47.156;8.326;2023-04-25T05:53:46;8.60;99.90
1568;DHT22;777;47.156;8.326;2023-04-25T05:56:14;8.50;99.90
1568;DHT22;777;47.156;8.326;2023-04-25T05:58:41;8.40;99.90
1568;DHT22;777;47.156;8.326;2023-04-25T06:01:11;8.30;99.90
1568;DHT22;777;47.156;8.326;2023-04-25T06:03:41;8.30;99.90
1568;DHT22;777;47.156;8.326;2023-04-25T06:06:09;8.10;99.90
1568;DHT22;777;47.156;8.326;2023-04-25T06:08:36;8.00;99.90
1568;DHT22;777;47.156;8.326;2023-04-25T06:11:04;7.90;99.90
1568;DHT22;777;47.156;8.326;2023-04-25T06:13:31;7.80;99.90
1568;DHT22;777;47.156;8.326;2023-04-25T06:15:59;7.70;99.90
1568;DHT22;777;47.156;8.326;2023-04-25T06:18:26;7.70;99.90
1568;DHT22;777;47.156;8.326;2023-04-25T06:20:54;7.80;99.90
1568;DHT22;777;47.156;8.326;2023-04-25T06:23:22;7.90;99.90
1568;DHT22;777;47.156;8.326;2023-04-25T06:25:53;7.90;99.90
1568;DHT22;777;47.156;8.326;2023-04-25T06:28:21;8.00;99.90
1568;DHT22;777;47.156;8.326;2023-04-25T06:30:50;8.10;99.90
1568;DHT22;777;47.156;8.326;2023-04-25T06:33:18;8.00;99.90
1568;DHT22;777;47.156;8.326;2023-04-25T06:35:47;7.90;99.90
1568;DHT22;777;47.156;8.326;2023-04-25T06:38:19;7.80;99.90
1568;DHT22;777;47.156;8.326;2023-04-25T06:40:50;7.70;99.90
1568;DHT22;777;47.156;8.326;2023-04-25T06:43:17;7.70;99.90
1568;DHT22;777;47.156;8.326;2023-04-25T06:46:03;7.60;99.90
1568;DHT22;777;47.156;8.326;2023-04-25T06:48:35;7.50;99.90
1568;DHT22;777;47.156;8.326;2023-04-25T06:51:02;7.30;99.90
1568;DHT22;777;47.156;8.326;2023-04-25T06:53:31;7.10;99.90
1568;DHT22;777;47.156;8.326;2023-04-25T06:56:01;6.90;99.90
1568;DHT22;777;47.156;8.326;2023-04-25T06:58:51;6.50;99.90
1568;DHT22;777;47.156;8.326;2023-04-25T07:01:38;6.00;99.90
1568;DHT22;777;47.156;8.326;2023-04-25T07:04:11;5.80;99.90
1568;DHT22;777;47.156;8.326;2023-04-25T07:06:43;5.80;99.90
1568;DHT22;777;47.156;8.326;2023-04-25T07:09:13;5.80;99.90
1568;DHT22;777;47.156;8.326;2023-04-25T07:11:44;5.80;99.90
1568;DHT22;777;47.156;8.326;2023-04-25T07:14:11;5.70;99.90
1568;DHT22;777;47.156;8.326;2023-04-25T07:16:39;5.80;99.90
1568;DHT22;777;47.156;8.326;2023-04-25T07:19:07;5.80;99.90
1568;DHT22;777;47.156;8.326;2023-04-25T07:21:35;5.80;99.90
1568;DHT22;777;47.156;8.326;2023-04-25T07:24:03;5.70;99.90
1568;DHT22;777;47.156;8.326;2023-04-25T07:26:35;5.80;99.90
1568;DHT22;777;47.156;8.326;2023-04-25T07:29:22;5.90;99.90
1568;DHT22;777;47.156;8.326;2023-04-25T07:31:49;6.00;99.90
1568;DHT22;777;47.156;8.326;2023-04-25T07:34:16;6.10;99.90
1568;DHT22;777;47.156;8.326;2023-04-25T07:36:43;6.20;99.90
1568;DHT22;777;47.156;8.326;2023-04-25T07:39:10;6.30;99.90
1568;DHT22;777;47.156;8.326;2023-04-25T07:41:39;6.30;99.90
1568;DHT22;777;47.156;8.326;2023-04-25T07:44:10;6.20;99.90
1568;DHT22;777;47.156;8.326;2023-04-25T07:46:37;6.20;99.90
1568;DHT22;777;47.156;8.326;2023-04-25T07:49:05;6.10;99.90
1568;DHT22;777;47.156;8.326;2023-04-25T07:51:33;6.20;99.90
1568;DHT22;777;47.156;8.326;2023-04-25T07:54:05;6.20;99.90
1568;DHT22;777;47.156;8.326;2023-04-25T07:56:35;6.40;99.90
1568;DHT22;777;47.156;8.326;2023-04-25T07:59:04;6.60;99.90
1568;DHT22;777;47.156;8.326;2023-04-25T08:01:33;6.80;99.90
1568;DHT22;777;47.156;8.326;2023-04-25T08:04:03;6.90;99.90
1568;DHT22;777;47.156;8.326;2023-04-25T08:06:56;7.10;99.90
1568;DHT22;777;47.156;8.326;2023-04-25T08:09:27;7.50;99.90
1568;DHT22;777;47.156;8.326;2023-04-25T08:11:55;7.70;99.90
1568;DHT22;777;47.156;8.326;2023-04-25T08:14:29;7.80;99.90
1568;DHT22;777;47.156;8.326;2023-04-25T08:17:02;7.70;99.90
1568;DHT22;777;47.156;8.326;2023-04-25T08:19:31;7.80;99.90
1568;DHT22;777;47.156;8.326;2023-04-25T08:21:59;7.90;99.90
1568;DHT22;777;47.156;8.326;2023-04-25T08:24:34;8.00;99.90
1568;DHT22;777;47.156;8.326;2023-04-25T08:27:02;8.00;99.90
1568;DHT22;777;47.156;8.326;2023-04-25T08:29:31;8.10;99.90
1568;DHT22;777;47.156;8.326;2023-04-25T08:31:59;8.20;99.90
1568;DHT22;777;47.156;8.326;2023-04-25T08:34:26;8.40;99.90
1568;DHT22;777;47.156;8.326;2023-04-25T08:36:54;8.60;99.90
1568;DHT22;777;47.156;8.326;2023-04-25T08:39:36;8.50;99.90
1568;DHT22;777;47.156;8.326;2023-04-25T08:42:31;8.30;99.90
1568;DHT22;777;47.156;8.326;2023-04-25T08:45:03;8.40;99.90
1568;DHT22;777;47.156;8.326;2023-04-25T08:47:35;8.40;99.90
1568;DHT22;777;47.156;8.326;2023-04-25T08:50:03;8.10;99.90
1568;DHT22;777;47.156;8.326;2023-04-25T08:52:36;7.80;99.90
1568;DHT22;777;47.156;8.326;2023-04-25T08:55:05;7.40;99.90
1568;DHT22;777;47.156;8.326;2023-04-25T08:57:34;7.20;99.90
1568;DHT22;777;47.156;8.326;2023-04-25T09:00:04;7.30;99.90
1568;DHT22;777;47.156;8.326;2023-04-25T09:02:34;7.40;99.90
1568;DHT22;777;47.156;8.326;2023-04-25T09:05:02;7.60;99.90
1568;DHT22;777;47.156;8.326;2023-04-25T09:07:30;7.80;99.90
1568;DHT22;777;47.156;8.326;2023-04-25T09:09:57;8.00;99.90
1568;DHT22;777;47.156;8.326;2023-04-25T09:12:26;8.10;99.90
1568;DHT22;777;47.156;8.326;2023-04-25T09:15:06;8.30;99.90
1568;DHT22;777;47.156;8.326;2023-04-25T09:17:55;8.40;99.90
1568;DHT22;777;47.156;8.326;2023-04-25T09:20:24;8.60;99.90
1568;DHT22;777;47.156;8.326;2023-04-25T09:23:01;8.90;99.90
1568;DHT22;777;47.156;8.326;2023-04-25T09:25:34;9.10;99.90
1568;DHT22;777;47.156;8.326;2023-04-25T09:28:04;8.80;99.90
1568;DHT22;777;47.156;8.326;2023-04-25T09:30:34;8.50;99.90
1568;DHT22;777;47.156;8.326;2023-04-25T09:33:16;8.20;99.90
1568;DHT22;777;47.156;8.326;2023-04-25T09:35:47;8.10;99.90
1568;DHT22;777;47.156;8.326;2023-04-25T09:38:48;7.90;99.90
1568;DHT22;777;47.156;8.326;2023-04-25T09:41:23;7.60;99.90
1568;DHT22;777;47.156;8.326;2023-04-25T09:43:56;7.30;99.90
1568;DHT22;777;47.156;8.326;2023-04-25T09:51:17;7.20;99.90
1568;DHT22;777;47.156;8.326;2023-04-25T09:53:46;6.90;99.90
1568;DHT22;777;47.156;8.326;2023-04-25T09:56:36;6.80;99.90
1568;DHT22;777;47.156;8.326;2023-04-25T09:59:06;6.80;99.90
1568;DHT22;777;47.156;8.326;2023-04-25T10:01:36;6.90;99.90
1568;DHT22;777;47.156;8.326;2023-04-25T10:04:12;7.20;99.90
1568;DHT22;777;47.156;8.326;2023-04-25T10:07:05;7.40;99.90
1568;DHT22;777;47.156;8.326;2023-04-25T10:09:33;7.60;99.90
1568;DHT22;777;47.156;8.326;2023-04-25T10:12:03;7.70;99.90
1568;DHT22;777;47.156;8.326;2023-04-25T10:14:31;7.90;99.90
1568;DHT22;777;47.156;8.326;2023-04-25T10:17:00;8.50;99.90
1568;DHT22;777;47.156;8.326;2023-04-25T10:19:27;9.00;99.90
1568;DHT22;777;47.156;8.326;2023-04-25T10:22:03;9.30;99.90
1568;DHT22;777;47.156;8.326;2023-04-25T10:24:34;9.50;99.90
1568;DHT22;777;47.156;8.326;2023-04-25T10:27:02;9.70;99.90
1568;DHT22;777;47.156;8.326;2023-04-25T10:29:29;9.70;99.90
1568;DHT22;777;47.156;8.326;2023-04-25T10:31:57;9.50;99.90
1568;DHT22;777;47.156;8.326;2023-04-25T10:34:37;9.30;99.90
1568;DHT22;777;47.156;8.326;2023-04-25T10:37:05;9.20;99.90
1568;DHT22;777;47.156;8.326;2023-04-25T10:39:38;9.10;99.90
1568;DHT22;777;47.156;8.326;2023-04-25T10:42:06;9.00;99.90
1568;DHT22;777;47.156;8.326;2023-04-25T10:44:33;8.90;99.90
1568;DHT22;777;47.156;8.326;2023-04-25T10:47:01;8.90;99.90
1568;DHT22;777;47.156;8.326;2023-04-25T10:49:33;8.90;99.90
1568;DHT22;777;47.156;8.326;2023-04-25T10:52:17;8.90;99.90
1568;DHT22;777;47.156;8.326;2023-04-25T10:54:51;8.90;99.90
1568;DHT22;777;47.156;8.326;2023-04-25T10:57:35;9.00;99.90
1568;DHT22;777;47.156;8.326;2023-04-25T11:00:09;9.00;99.90
1568;DHT22;777;47.156;8.326;2023-04-25T11:02:38;9.00;99.90
1568;DHT22;777;47.156;8.326;2023-04-25T11:05:07;9.10;99.90
1568;DHT22;777;47.156;8.326;2023-04-25T11:07:38;9.20;99.90
1568;DHT22;777;47.156;8.326;2023-04-25T11:10:11;9.50;99.90
1568;DHT22;777;47.156;8.326;2023-04-25T11:12:38;9.80;99.90
1568;DHT22;777;47.156;8.326;2023-04-25T11:15:07;9.90;99.90
1568;DHT22;777;47.156;8.326;2023-04-25T11:17:34;10.40;99.90
1568;DHT22;777;47.156;8.326;2023-04-25T11:20:02;11.20;99.90
1568;DHT22;777;47.156;8.326;2023-04-25T11:22:34;11.90;99.90
1568;DHT22;777;47.156;8.326;2023-04-25T11:25:05;12.30;99.90
1568;DHT22;777;47.156;8.326;2023-04-25T11:27:34;11.80;99.90
1568;DHT22;777;47.156;8.326;2023-04-25T11:30:12;11.40;99.90
1568;DHT22;777;47.156;8.326;2023-04-25T11:32:40;10.80;99.90
1568;DHT22;777;47.156;8.326;2023-04-25T11:35:08;9.90;99.90
1568;DHT22;777;47.156;8.326;2023-04-25T11:37:35;9.80;99.90
1568;DHT22;777;47.156;8.326;2023-04-25T11:40:04;9.60;99.90
1568;DHT22;777;47.156;8.326;2023-04-25T11:42:33;8.90;99.90
1568;DHT22;777;47.156;8.326;2023-04-25T11:45:00;8.50;99.90
1568;DHT22;777;47.156;8.326;2023-04-25T11:47:29;8.30;99.90
1568;DHT22;777;47.156;8.326;2023-04-25T11:49:58;7.30;99.90
1568;DHT22;777;47.156;8.326;2023-04-25T11:52:25;6.90;99.90
1568;DHT22;777;47.156;8.326;2023-04-25T11:55:04;6.70;99.90
1568;DHT22;777;47.156;8.326;2023-04-25T11:57:34;6.80;99.90
1568;DHT22;777;47.156;8.326;2023-04-25T12:00:09;7.30;99.90
1568;DHT22;777;47.156;8.326;2023-04-25T12:02:40;7.30;99.90
1568;DHT22;777;47.156;8.326;2023-04-25T12:05:08;7.40;99.90
1568;DHT22;777;47.156;8.326;2023-04-25T12:07:35;7.40;99.90
1568;DHT22;777;47.156;8.326;2023-04-25T12:10:07;7.50;99.90
1568;DHT22;777;47.156;8.326;2023-04-25T12:12:37;8.00;99.90
1568;DHT22;777;47.156;8.326;2023-04-25T12:15:11;8.60;99.90
1568;DHT22;777;47.156;8.326;2023-04-25T12:17:41;8.60;99.90
1568;DHT22;777;47.156;8.326;2023-04-25T12:20:10;8.80;99.90
1568;DHT22;777;47.156;8.326;2023-04-25T12:22:37;8.70;99.90
1568;DHT22;777;47.156;8.326;2023-04-25T12:25:05;9.10;99.90
1568;DHT22;777;47.156;8.326;2023-04-25T12:27:33;9.60;99.90
1568;DHT22;777;47.156;8.326;2023-04-25T12:30:03;9.50;99.90
1568;DHT22;777;47.156;8.326;2023-04-25T12:32:30;9.90;99.90
1568;DHT22;777;47.156;8.326;2023-04-25T12:34:57;10.20;99.90
1568;DHT22;777;47.156;8.326;2023-04-25T12:37:24;10.20;99.90
1568;DHT22;777;47.156;8.326;2023-04-25T12:39:51;10.20;99.90
1568;DHT22;777;47.156;8.326;2023-04-25T12:42:18;10.40;99.90
1568;DHT22;777;47.156;8.326;2023-04-25T12:44:45;10.40;99.90
1568;DHT22;777;47.156;8.326;2023-04-25T12:47:15;10.60;99.90
1568;DHT22;777;47.156;8.326;2023-04-25T12:49:42;10.60;99.90
1568;DHT22;777;47.156;8.326;2023-04-25T12:52:09;10.40;99.90
1568;DHT22;777;47.156;8.326;2023-04-25T12:54:36;11.80;99.90
1568;DHT22;777;47.156;8.326;2023-04-25T12:57:04;12.00;99.90
1568;DHT22;777;47.156;8.326;2023-04-25T12:59:31;11.30;99.90
1568;DHT22;777;47.156;8.326;2023-04-25T13:01:58;10.90;99.90
1568;DHT22;777;47.156;8.326;2023-04-25T13:04:26;11.50;99.90
1568;DHT22;777;47.156;8.326;2023-04-25T13:06:53;12.20;99.90
1568;DHT22;777;47.156;8.326;2023-04-25T13:09:20;11.70;99.90
1568;DHT22;777;47.156;8.326;2023-04-25T13:11:47;11.40;99.90
1568;DHT22;777;47.156;8.326;2023-04-25T13:14:14;11.50;99.90
1568;DHT22;777;47.156;8.326;2023-04-25T13:16:42;11.20;99.90
1568;DHT22;777;47.156;8.326;2023-04-25T13:19:09;11.00;99.90
1568;DHT22;777;47.156;8.326;2023-04-25T13:21:38;11.10;99.90
1568;DHT22;777;47.156;8.326;2023-04-25T13:24:06;11.50;99.90
1568;DHT22;777;47.156;8.326;2023-04-25T13:26:33;11.60;99.90
1568;DHT22;777;47.156;8.326;2023-04-25T13:29:00;11.30;99.90
1568;DHT22;777;47.156;8.326;2023-04-25T13:31:29;11.40;99.90
1568;DHT22;777;47.156;8.326;2023-04-25T13:33:57;12.10;99.90
1568;DHT22;777;47.156;8.326;2023-04-25T13:36:24;12.30;99.90
1568;DHT22;777;47.156;8.326;2023-04-25T13:38:54;13.20;99.90
1568;DHT22;777;47.156;8.326;2023-04-25T13:41:21;12.80;99.90
1568;DHT22;777;47.156;8.326;2023-04-25T13:43:48;12.20;99.90
1568;DHT22;777;47.156;8.326;2023-04-25T13:46:15;11.70;99.90
1568;DHT22;777;47.156;8.326;2023-04-25T13:48:42;11.40;99.90
1568;DHT22;777;47.156;8.326;2023-04-25T13:51:15;11.50;99.90
1568;DHT22;777;47.156;8.326;2023-04-25T13:53:43;11.70;99.90
1568;DHT22;777;47.156;8.326;2023-04-25T13:56:12;11.70;99.90
1568;DHT22;777;47.156;8.326;2023-04-25T13:58:39;12.10;99.90
1568;DHT22;777;47.156;8.326;2023-04-25T14:01:06;13.80;99.90
1568;DHT22;777;47.156;8.326;2023-04-25T14:03:33;14.10;99.90
1568;DHT22;777;47.156;8.326;2023-04-25T14:06:00;13.20;99.90
1568;DHT22;777;47.156;8.326;2023-04-25T14:08:27;12.70;99.90
1568;DHT22;777;47.156;8.326;2023-04-25T14:10:54;12.40;99.90
1568;DHT22;777;47.156;8.326;2023-04-25T14:13:23;12.40;99.90
1568;DHT22;777;47.156;8.326;2023-04-25T14:15:50;13.70;99.90
1568;DHT22;777;47.156;8.326;2023-04-25T14:18:18;13.80;99.90
1568;DHT22;777;47.156;8.326;2023-04-25T14:20:45;13.20;99.90
1568;DHT22;777;47.156;8.326;2023-04-25T14:23:12;12.60;99.90
1568;DHT22;777;47.156;8.326;2023-04-25T14:25:39;11.90;99.90
1568;DHT22;777;47.156;8.326;2023-04-25T14:28:07;11.40;99.90
1568;DHT22;777;47.156;8.326;2023-04-25T14:30:36;11.40;99.90
1568;DHT22;777;47.156;8.326;2023-04-25T14:33:03;11.50;99.90
1568;DHT22;777;47.156;8.326;2023-04-25T14:35:30;11.30;99.90
1568;DHT22;777;47.156;8.326;2023-04-25T14:37:58;11.40;99.90
1568;DHT22;777;47.156;8.326;2023-04-25T14:40:25;11.60;99.90
1568;DHT22;777;47.156;8.326;2023-04-25T14:42:53;11.70;99.90
1568;DHT22;777;47.156;8.326;2023-04-25T14:45:20;11.40;99.90
1568;DHT22;777;47.156;8.326;2023-04-25T14:47:48;11.00;99.90
1568;DHT22;777;47.156;8.326;2023-04-25T14:50:15;10.70;99.90
1568;DHT22;777;47.156;8.326;2023-04-25T14:52:43;10.70;99.90
1568;DHT22;777;47.156;8.326;2023-04-25T14:55:10;10.70;99.90
1568;DHT22;777;47.156;8.326;2023-04-25T14:57:37;10.70;99.90
1568;DHT22;777;47.156;8.326;2023-04-25T15:00:06;10.70;99.90
1568;DHT22;777;47.156;8.326;2023-04-25T15:02:35;10.50;99.90
1568;DHT22;777;47.156;8.326;2023-04-25T15:05:04;10.00;99.90
1568;DHT22;777;47.156;8.326;2023-04-25T15:07:31;9.50;99.90
1568;DHT22;777;47.156;8.326;2023-04-25T15:10:00;9.10;99.90
1568;DHT22;777;47.156;8.326;2023-04-25T15:12:28;8.90;99.90
1568;DHT22;777;47.156;8.326;2023-04-25T15:14:55;8.80;99.90
1568;DHT22;777;47.156;8.326;2023-04-25T15:17:22;8.70;99.90
1568;DHT22;777;47.156;8.326;2023-04-25T15:19:49;8.50;99.90
1568;DHT22;777;47.156;8.326;2023-04-25T15:22:18;8.40;99.90
1568;DHT22;777;47.156;8.326;2023-04-25T15:24:45;8.20;99.90
1568;DHT22;777;47.156;8.326;2023-04-25T15:27:13;8.10;99.90
1568;DHT22;777;47.156;8.326;2023-04-25T15:29:40;8.10;99.90
1568;DHT22;777;47.156;8.326;2023-04-25T15:32:07;8.10;99.90
1568;DHT22;777;47.156;8.326;2023-04-25T15:34:34;8.40;99.90
1568;DHT22;777;47.156;8.326;2023-04-25T15:37:01;10.00;99.90
1568;DHT22;777;47.156;8.326;2023-04-25T15:39:30;11.90;99.90
1568;DHT22;777;47.156;8.326;2023-04-25T15:41:57;13.90;99.90
1568;DHT22;777;47.156;8.326;2023-04-25T15:44:24;13.50;99.90
1568;DHT22;777;47.156;8.326;2023-04-25T15:46:51;13.30;99.90
1568;DHT22;777;47.156;8.326;2023-04-25T15:49:18;13.50;99.90
1568;DHT22;777;47.156;8.326;2023-04-25T15:51:46;13.50;99.90
1568;DHT22;777;47.156;8.326;2023-04-25T15:54:13;15.20;99.90
1568;DHT22;777;47.156;8.326;2023-04-25T15:56:42;17.00;99.90
1568;DHT22;777;47.156;8.326;2023-04-25T15:59:09;18.20;99.90
1568;DHT22;777;47.156;8.326;2023-04-25T16:01:36;17.80;99.90
1568;DHT22;777;47.156;8.326;2023-04-25T16:04:05;16.60;99.90
1568;DHT22;777;47.156;8.326;2023-04-25T16:06:32;16.20;99.90
1568;DHT22;777;47.156;8.326;2023-04-25T16:08:59;17.50;99.90
1568;DHT22;777;47.156;8.326;2023-04-25T16:11:26;16.90;99.90
1568;DHT22;777;47.156;8.326;2023-04-25T16:13:56;15.50;99.90
1568;DHT22;777;47.156;8.326;2023-04-25T16:16:22;14.50;99.90
1568;DHT22;777;47.156;8.326;2023-04-25T16:18:50;14.20;99.90
1568;DHT22;777;47.156;8.326;2023-04-25T16:21:17;14.10;99.90
1568;DHT22;777;47.156;8.326;2023-04-25T16:23:44;13.90;99.90
1568;DHT22;777;47.156;8.326;2023-04-25T16:26:11;13.50;99.90
1568;DHT22;777;47.156;8.326;2023-04-25T16:28:38;13.10;99.90
1568;DHT22;777;47.156;8.326;2023-04-25T16:31:07;12.90;99.90
1568;DHT22;777;47.156;8.326;2023-04-25T16:33:34;12.90;99.90
1568;DHT22;777;47.156;8.326;2023-04-25T16:36:01;12.90;99.90
1568;DHT22;777;47.156;8.326;2023-04-25T16:38:28;12.90;99.90
1568;DHT22;777;47.156;8.326;2023-04-25T16:40:55;12.20;99.90
1568;DHT22;777;47.156;8.326;2023-04-25T16:43:22;11.50;99.90
1568;DHT22;777;47.156;8.326;2023-04-25T16:45:49;10.90;99.90
1568;DHT22;777;47.156;8.326;2023-04-25T16:48:17;10.40;99.90
1568;DHT22;777;47.156;8.326;2023-04-25T16:50:48;10.10;99.90
1568;DHT22;777;47.156;8.326;2023-04-25T16:53:16;9.70;99.90
1568;DHT22;777;47.156;8.326;2023-04-25T16:55:43;9.40;99.90